Time;durP1;ratioP1;P1;durP2;ratioP2;P2;SDS_P1;SDS_P2;PMS_P1;PMS_P2;Temp;Humidity;BMP_temperature;BMP_pressure;BME280_temperature;BME280_humidity;BME280_pressure;Samples;Min_cycle;Max_cycle;Signal;HPM_P1;HPM_P2
2023/01/09 00:01:24;;;;;;;0.73;0.60;;;;;;;10.54;67.45;99358.19;5099402;28;20079;-61
2023/01/09 00:03:52;;;;;;;2.13;0.98;;;;;;;10.53;67.51;99350.41;5099698;28;20051;-61
2023/01/09 00:06:20;;;;;;;1.10;0.63;;;;;;;10.52;67.14;99348.78;5101421;28;20051;-59
2023/01/09 00:08:48;;;;;;;2.00;1.20;;;;;;;10.50;66.90;99359.78;5102745;28;20044;-61
2023/01/09 00:11:17;;;;;;;1.05;0.57;;;;;;;10.49;67.15;99365.41;5104967;28;20072;-61
2023/01/09 00:13:46;;;;;;;2.25;0.77;;;;;;;10.39;66.97;99358.09;5098994;28;20107;-61
2023/01/09 00:16:13;;;;;;;0.63;0.50;;;;;;;10.47;67.19;99371.03;5098910;28;20076;-61
2023/01/09 00:18:41;;;;;;;0.75;0.50;;;;;;;10.45;67.31;99381.22;5097538;28;20063;-61
2023/01/09 00:21:11;;;;;;;0.82;0.50;;;;;;;10.32;67.23;99360.19;5106055;28;20482;-61
2023/01/09 00:23:39;;;;;;;1.98;0.88;;;;;;;10.43;67.00;99362.69;5100494;28;20040;-60
2023/01/09 00:26:09;;;;;;;1.02;0.68;;;;;;;10.42;67.06;99379.06;5097377;28;20532;-54
2023/01/09 00:28:39;;;;;;;0.43;0.43;;;;;;;10.41;66.91;99378.25;5099678;28;20055;-59
2023/01/09 00:31:08;;;;;;;2.58;0.85;;;;;;;10.31;66.94;99359.41;5092944;28;20055;-55
2023/01/09 00:33:39;;;;;;;1.15;0.68;;;;;;;10.40;67.00;99375.84;5103148;28;20058;-61
2023/01/09 00:36:07;;;;;;;1.77;0.60;;;;;;;10.38;66.82;99378.78;5104479;28;20048;-61
2023/01/09 00:38:36;;;;;;;1.60;0.60;;;;;;;10.37;66.81;99379.84;5092526;28;20084;-61
2023/01/09 00:41:05;;;;;;;1.73;0.80;;;;;;;10.36;67.12;99388.16;5103060;28;20048;-59
2023/01/09 00:43:38;;;;;;;1.75;0.70;;;;;;;10.35;66.77;99386.53;5096760;28;20125;-61
2023/01/09 00:46:08;;;;;;;0.90;0.60;;;;;;;10.33;66.82;99380.63;5102245;28;20088;-62
2023/01/09 00:48:38;;;;;;;1.20;0.88;;;;;;;10.32;66.84;99382.50;5102824;28;20090;-62
2023/01/09 00:51:07;;;;;;;2.65;0.80;;;;;;;10.30;66.62;99390.00;5107045;28;20103;-60
2023/01/09 00:53:37;;;;;;;2.58;1.30;;;;;;;10.29;66.58;99387.56;5105117;28;20397;-62
2023/01/09 00:56:10;;;;;;;3.28;0.75;;;;;;;10.29;66.86;99390.25;5102676;28;20052;-62
2023/01/09 00:58:38;;;;;;;2.13;0.73;;;;;;;10.28;66.69;99397.50;5104129;28;20063;-62
2023/01/09 01:01:07;;;;;;;1.27;0.70;;;;;;;10.27;66.86;99393.19;5105103;28;20050;-62
2023/01/09 01:03:35;;;;;;;1.45;0.80;;;;;;;10.26;66.75;99391.56;5104143;28;20055;-62
2023/01/09 01:08:49;;;;;;;2.70;0.93;;;;;;;10.25;66.97;99394.50;5101080;28;20052;-62
2023/01/09 01:11:17;;;;;;;4.55;1.55;;;;;;;10.23;66.78;99389.41;5107466;28;20149;-61
2023/01/09 01:13:44;;;;;;;0.85;0.45;;;;;;;10.23;66.75;99392.09;5106335;28;20055;-61
2023/01/09 01:16:14;;;;;;;0.95;0.57;;;;;;;10.23;66.98;99404.69;5093618;28;20053;-61
2023/01/09 01:18:41;;;;;;;1.85;0.80;;;;;;;10.22;66.74;99401.19;5093695;28;20051;-62
2023/01/09 01:21:12;;;;;;;1.33;0.68;;;;;;;10.23;66.42;99402.00;5097661;28;20167;-59
2023/01/09 01:23:41;;;;;;;3.17;0.70;;;;;;;10.21;66.41;99396.91;5111483;28;20062;-62
2023/01/09 01:26:12;;;;;;;1.10;0.68;;;;;;;10.21;66.63;99410.31;5093935;28;20058;-62
2023/01/09 01:28:41;;;;;;;1.92;0.68;;;;;;;10.20;66.60;99410.56;5103974;28;20043;-53
2023/01/09 01:31:09;;;;;;;1.63;0.80;;;;;;;10.18;66.67;99400.06;5112988;28;20052;-61
2023/01/09 01:33:38;;;;;;;1.50;0.80;;;;;;;10.18;66.44;99410.78;5101007;28;21280;-62
2023/01/09 01:36:08;;;;;;;2.40;0.70;;;;;;;10.17;66.39;99411.88;5102799;28;20051;-56
2023/01/09 01:38:36;;;;;;;1.35;0.80;;;;;;;10.07;66.44;99392.97;5101933;28;20059;-61
2023/01/09 01:41:05;;;;;;;2.40;1.00;;;;;;;10.15;66.40;99411.31;5098642;28;20045;-62
2023/01/09 01:43:52;;;;;;;3.45;0.73;;;;;;;10.13;66.50;99421.50;5106753;28;20127;-61
2023/01/09 01:46:20;;;;;;;3.78;1.48;;;;;;;10.12;66.43;99427.91;5104377;28;20044;-62
2023/01/09 01:48:54;;;;;;;1.00;0.77;;;;;;;10.12;66.53;99427.91;5108998;28;20040;-63
2023/01/09 01:51:24;;;;;;;0.73;0.60;;;;;;;10.10;66.20;99430.84;5099412;28;20044;-56
2023/01/09 01:53:57;;;;;;;1.67;0.70;;;;;;;10.10;66.67;99430.06;5102348;28;20105;-62
2023/01/09 01:56:28;;;;;;;1.35;0.60;;;;;;;10.08;66.40;99430.31;5103413;28;20111;-59
2023/01/09 01:59:01;;;;;;;1.02;0.82;;;;;;;10.06;66.24;99427.06;5095381;28;20048;-61
2023/01/09 02:01:30;;;;;;;0.85;0.60;;;;;;;10.06;66.59;99429.75;5099892;28;20047;-62
2023/01/09 02:04:02;;;;;;;1.70;0.80;;;;;;;10.05;66.51;99427.31;5102216;28;20059;-62
2023/01/09 02:06:33;;;;;;;2.53;0.80;;;;;;;10.04;66.53;99431.88;5098712;28;20559;-61
2023/01/09 02:09:03;;;;;;;3.67;0.70;;;;;;;10.04;66.49;99425.69;5092074;28;20047;-54
2023/01/09 02:11:31;;;;;;;1.52;0.80;;;;;;;10.02;66.61;99427.81;5097718;28;20082;-62
2023/01/09 02:14:00;;;;;;;3.28;0.80;;;;;;;9.92;66.25;99414.28;5101544;28;20048;-62
2023/01/09 02:16:41;;;;;;;2.67;0.88;;;;;;;9.98;66.20;99424.81;5097340;28;20501;-62
2023/01/09 02:19:29;;;;;;;1.00;0.70;;;;;;;9.99;66.54;99428.31;5100662;28;20127;-60
2023/01/09 02:22:07;;;;;;;2.55;0.65;;;;;;;9.98;66.22;99422.16;5092460;28;20056;-57
2023/01/09 02:25:03;;;;;;;2.63;1.00;;;;;;;9.97;66.04;99428.56;5095776;28;20752;-62
2023/01/09 02:27:59;;;;;;;2.10;0.85;;;;;;;9.95;66.27;99413.78;5100236;28;20044;-59
2023/01/09 02:30:34;;;;;;;1.17;0.60;;;;;;;9.86;66.25;99408.06;5085999;28;20417;-62
2023/01/09 02:33:20;;;;;;;2.15;0.80;;;;;;;9.93;66.25;99418.59;5093658;28;20357;-61
2023/01/09 02:36:03;;;;;;;2.42;2.08;;;;;;;9.90;66.38;99417.22;5097712;28;20364;-62
2023/01/09 02:38:36;;;;;;;1.90;0.80;;;;;;;9.85;66.09;99408.31;5099452;28;20112;-62
2023/01/09 02:41:11;;;;;;;1.48;0.77;;;;;;;9.91;66.43;99416.16;5089036;28;20152;-62
2023/01/09 02:43:40;;;;;;;1.13;0.70;;;;;;;9.88;66.42;99414.00;5097126;28;20048;-62
2023/01/09 02:46:19;;;;;;;0.85;0.63;;;;;;;9.88;66.42;99418.53;5099722;28;20115;-62
2023/01/09 02:48:50;;;;;;;3.35;1.00;;;;;;;9.86;66.17;99418.78;5094833;28;20051;-62
2023/01/09 02:51:27;;;;;;;3.05;1.05;;;;;;;9.86;66.06;99417.97;5100487;28;20060;-61
2023/01/09 02:54:11;;;;;;;2.92;1.10;;;;;;;9.85;66.22;99408.31;5096859;28;20155;-62
2023/01/09 02:57:14;;;;;;;4.07;1.77;;;;;;;9.85;66.12;99405.63;5105642;28;20048;-62
2023/01/09 02:59:56;;;;;;;3.35;1.10;;;;;;;9.84;66.31;99401.31;5074844;28;20284;-61
2023/01/09 03:02:39;;;;;;;1.98;1.10;;;;;;;9.83;66.10;99403.19;5108808;28;20448;-61
2023/01/09 03:05:14;;;;;;;2.78;1.23;;;;;;;9.82;66.50;99403.44;5101653;28;20051;-62
2023/01/09 03:07:47;;;;;;;3.50;1.13;;;;;;;9.81;66.49;99394.59;5097183;28;20056;-62
2023/01/09 03:10:21;;;;;;;3.63;1.33;;;;;;;9.78;66.20;99390.53;5103499;28;20112;-60
2023/01/09 03:12:53;;;;;;;6.63;2.92;;;;;;;9.80;66.32;99395.66;5095579;28;20484;-61
2023/01/09 03:15:25;;;;;;;4.75;2.35;;;;;;;9.80;66.39;99395.66;5099881;28;20126;-58
2023/01/09 03:17:55;;;;;;;4.57;1.75;;;;;;;9.78;65.91;99403.16;5098922;28;20075;-62
2023/01/09 03:20:26;;;;;;;3.35;1.40;;;;;;;9.77;65.91;99406.88;5100450;28;20540;-61
2023/01/09 03:22:56;;;;;;;3.88;1.77;;;;;;;9.77;66.01;99414.94;5106958;28;20048;-61
2023/01/09 03:25:26;;;;;;;3.55;1.92;;;;;;;9.66;65.99;99400.59;5100482;28;20052;-52
2023/01/09 03:27:56;;;;;;;3.58;1.40;;;;;;;9.75;66.31;99427.78;5102540;28;20040;-54
2023/01/09 03:30:26;;;;;;;5.25;1.70;;;;;;;9.73;65.89;99422.69;5102044;28;20052;-62
2023/01/09 03:32:56;;;;;;;5.10;1.88;;;;;;;9.64;65.95;99413.44;5105358;28;20436;-61
2023/01/09 03:35:24;;;;;;;2.97;1.52;;;;;;;9.72;65.67;99425.59;5101474;28;20131;-61
2023/01/09 03:37:52;;;;;;;5.18;1.60;;;;;;;9.60;66.23;99398.13;5101573;28;20114;-62
2023/01/09 03:40:21;;;;;;;5.57;1.90;;;;;;;9.69;66.44;99407.34;5103177;28;20107;-61
2023/01/09 03:42:48;;;;;;;2.95;1.30;;;;;;;9.69;66.14;99418.06;5101334;28;20108;-61
2023/01/09 03:45:16;;;;;;;5.00;1.52;;;;;;;9.68;66.31;99422.63;5111030;28;20055;-61
2023/01/09 03:47:44;;;;;;;3.05;1.50;;;;;;;9.67;66.28;99422.88;5107743;28;20044;-61
2023/01/09 03:50:13;;;;;;;4.72;1.30;;;;;;;9.65;66.23;99420.44;5098356;28;20066;-62
2023/01/09 03:52:41;;;;;;;4.03;1.30;;;;;;;9.66;65.81;99415.88;5112336;28;20055;-61
2023/01/09 03:55:09;;;;;;;5.38;1.45;;;;;;;9.64;65.82;99421.50;5099388;28;20727;-62
2023/01/09 03:57:37;;;;;;;5.40;1.58;;;;;;;9.64;65.86;99420.69;5095481;28;20083;-61
2023/01/09 04:00:07;;;;;;;1.60;1.10;;;;;;;9.63;66.50;99422.56;5107679;28;20044;-62
2023/01/09 04:02:35;;;;;;;2.03;1.08;;;;;;;9.64;65.92;99426.88;5105658;28;20044;-60
2023/01/09 04:05:02;;;;;;;4.25;1.10;;;;;;;9.63;66.24;99430.59;5100233;28;20104;-60
2023/01/09 04:07:32;;;;;;;4.75;1.80;;;;;;;9.61;65.71;99429.22;5101061;28;20055;-53
2023/01/09 04:09:59;;;;;;;3.58;1.42;;;;;;;9.61;66.15;99431.91;5106417;28;20543;-60
2023/01/09 04:12:27;;;;;;;3.10;1.15;;;;;;;9.60;66.29;99420.38;5100838;28;20055;-56
2023/01/09 04:14:55;;;;;;;4.55;1.25;;;;;;;9.59;66.52;99428.69;5099389;28;20128;-60
2023/01/09 04:17:23;;;;;;;1.42;0.82;;;;;;;9.59;66.08;99434.03;5114402;28;20055;-61
2023/01/09 04:19:51;;;;;;;2.75;1.20;;;;;;;9.58;66.08;99435.09;5097052;28;20095;-62
2023/01/09 04:22:19;;;;;;;5.45;1.10;;;;;;;9.58;65.91;99421.69;5103106;28;20080;-61
2023/01/09 04:24:48;;;;;;;4.63;1.30;;;;;;;9.57;66.11;99420.88;5100150;28;20483;-62
2023/01/09 04:27:15;;;;;;;3.55;0.90;;;;;;;9.56;65.96;99418.44;5098601;28;20104;-60
2023/01/09 04:29:43;;;;;;;3.00;1.08;;;;;;;9.56;65.88;99426.50;5103133;28;20078;-61
2023/01/09 04:32:11;;;;;;;2.47;1.05;;;;;;;9.56;65.74;99427.31;5096174;28;20064;-61
2023/01/09 04:34:39;;;;;;;2.20;1.20;;;;;;;9.54;66.20;99425.94;5103331;28;20055;-54
2023/01/09 04:37:07;;;;;;;2.30;1.10;;;;;;;9.54;66.49;99423.25;5104889;28;20052;-62
2023/01/09 04:39:36;;;;;;;3.25;1.00;;;;;;;9.53;66.03;99418.94;5094931;28;20062;-61
2023/01/09 04:42:05;;;;;;;4.82;1.40;;;;;;;9.52;65.88;99420.81;5102294;28;20044;-61
2023/01/09 04:44:33;;;;;;;4.47;1.50;;;;;;;9.53;66.14;99421.63;5092956;28;20068;-62
2023/01/09 04:47:00;;;;;;;3.08;1.08;;;;;;;9.53;65.77;99421.63;5104009;28;20124;-61
2023/01/09 04:49:28;;;;;;;7.85;1.48;;;;;;;9.53;65.92;99418.94;5097444;28;20104;-62
2023/01/09 04:51:56;;;;;;;2.72;1.20;;;;;;;9.52;66.26;99412.78;5096111;28;20166;-62
2023/01/09 04:54:24;;;;;;;5.90;1.10;;;;;;;9.51;66.45;99421.88;5103763;28;20467;-62
2023/01/09 04:56:52;;;;;;;3.50;1.42;;;;;;;9.51;66.25;99423.75;5099699;28;20103;-62
2023/01/09 04:59:21;;;;;;;9.15;1.35;;;;;;;9.52;66.44;99414.63;5101857;28;20139;-54
2023/01/09 05:01:50;;;;;;;6.30;1.83;;;;;;;9.50;65.82;99417.56;5102340;28;20147;-61
2023/01/09 05:04:18;;;;;;;5.57;1.33;;;;;;;9.50;66.35;99412.22;5094280;28;20134;-61
2023/01/09 05:06:46;;;;;;;5.50;1.65;;;;;;;9.53;65.84;99421.63;5098673;28;20054;-61
2023/01/09 05:09:14;;;;;;;5.30;1.13;;;;;;;9.51;66.15;99411.16;5090868;28;20166;-60
2023/01/09 05:11:42;;;;;;;2.70;1.20;;;;;;;9.51;66.38;99410.34;5093200;28;20075;-62
2023/01/09 05:14:11;;;;;;;2.63;1.10;;;;;;;9.51;66.59;99415.69;5101820;28;20051;-57
2023/01/09 05:16:40;;;;;;;7.85;1.90;;;;;;;9.50;66.44;99409.53;5094983;28;20051;-62
2023/01/09 05:19:08;;;;;;;4.28;1.00;;;;;;;9.51;66.03;99413.03;5108496;28;20101;-55
2023/01/09 05:21:36;;;;;;;2.05;1.10;;;;;;;9.52;65.96;99407.41;5098204;28;20136;-61
2023/01/09 05:24:04;;;;;;;5.30;1.52;;;;;;;9.54;65.99;99412.53;5094212;28;20047;-61
2023/01/09 05:26:32;;;;;;;5.20;1.42;;;;;;;9.53;66.10;99410.91;5096331;28;20043;-58
2023/01/09 05:29:00;;;;;;;4.65;1.45;;;;;;;9.53;66.26;99410.91;5099869;28;20070;-61
2023/01/09 05:31:28;;;;;;;3.22;1.25;;;;;;;9.52;65.93;99418.13;5103019;28;20063;-61
2023/01/09 05:33:58;;;;;;;4.90;1.23;;;;;;;9.53;66.48;99413.59;5098654;28;20043;-62
2023/01/09 05:36:27;;;;;;;6.95;1.35;;;;;;;9.51;65.87;99411.16;5102367;28;20073;-61
2023/01/09 05:38:56;;;;;;;5.38;1.70;;;;;;;9.47;66.34;99396.63;5100628;28;20051;-51
2023/01/09 05:41:25;;;;;;;7.43;1.38;;;;;;;9.45;66.00;99396.88;5094676;28;20067;-61
2023/01/09 05:43:53;;;;;;;2.08;1.13;;;;;;;9.48;66.04;99395.56;5102877;28;20044;-61
2023/01/09 05:46:21;;;;;;;3.45;1.00;;;;;;;9.49;65.99;99391.81;5095733;28;20334;-62
2023/01/09 05:48:48;;;;;;;4.88;1.40;;;;;;;9.49;65.95;99394.50;5102270;28;20059;-62
2023/01/09 05:51:18;;;;;;;3.25;1.10;;;;;;;9.49;66.34;99396.38;5106916;28;20082;-61
2023/01/09 05:53:46;;;;;;;3.80;1.15;;;;;;;9.49;66.54;99388.31;5089600;28;20086;-62
2023/01/09 05:56:13;;;;;;;2.80;1.05;;;;;;;9.48;66.62;99392.88;5095846;28;20044;-57
2023/01/09 05:58:41;;;;;;;4.28;1.33;;;;;;;9.48;66.34;99395.56;5097081;28;20048;-60
2023/01/09 06:01:09;;;;;;;5.72;1.27;;;;;;;9.49;66.53;99385.63;5101287;28;20351;-62
2023/01/09 06:03:37;;;;;;;7.22;2.00;;;;;;;9.49;65.92;99391.81;5106295;28;20040;-61
2023/01/09 06:06:06;;;;;;;3.08;1.17;;;;;;;9.51;65.98;99384.34;5101024;28;20055;-57
2023/01/09 06:08:35;;;;;;;2.78;1.13;;;;;;;9.53;66.26;99386.75;5102489;28;20050;-61
2023/01/09 06:11:03;;;;;;;6.03;1.33;;;;;;;9.56;66.46;99376.34;5097156;28;20060;-62
2023/01/09 06:13:31;;;;;;;7.15;1.23;;;;;;;9.67;67.56;99382.63;5100199;28;20039;-62
2023/01/09 06:15:59;;;;;;;6.20;1.95;;;;;;;9.67;66.36;99378.06;5100261;28;20067;-62
2023/01/09 06:18:27;;;;;;;1.38;0.93;;;;;;;9.76;65.52;99376.56;5099488;28;20079;-62
2023/01/09 06:20:54;;;;;;;5.40;1.80;;;;;;;9.77;65.75;99372.00;5094106;28;20048;-61
2023/01/09 06:23:22;;;;;;;4.93;1.27;;;;;;;9.91;65.52;99369.75;5104115;28;20158;-58
2023/01/09 06:25:51;;;;;;;3.97;1.73;;;;;;;10.30;64.71;99370.38;5096639;28;20071;-60
2023/01/09 06:28:19;;;;;;;5.85;1.33;;;;;;;10.32;64.06;99384.38;5115307;28;20465;-60
2023/01/09 06:30:50;;;;;;;4.05;1.40;;;;;;;10.26;64.23;99380.84;5094226;28;20058;-60
2023/01/09 06:33:18;;;;;;;8.27;1.75;;;;;;;10.21;64.49;99390.72;5104620;28;20048;-60
2023/01/09 06:35:46;;;;;;;4.95;1.50;;;;;;;10.15;64.77;99387.16;5099577;28;20532;-61
2023/01/09 06:38:14;;;;;;;9.55;1.52;;;;;;;10.10;65.09;99395.97;5100117;28;20103;-59
2023/01/09 06:40:42;;;;;;;4.50;1.35;;;;;;;9.93;65.04;99379.16;5097689;28;20048;-59
2023/01/09 06:43:11;;;;;;;3.72;1.30;;;;;;;9.95;65.37;99395.00;5100223;28;20356;-59
2023/01/09 06:45:39;;;;;;;5.93;1.25;;;;;;;9.97;65.34;99398.25;5098711;28;20430;-60
2023/01/09 06:48:07;;;;;;;10.00;2.08;;;;;;;9.94;65.36;99398.75;5098223;28;20059;-59
2023/01/09 06:50:35;;;;;;;5.75;1.50;;;;;;;9.90;65.82;99413.72;4746145;28;10000272;-59
2023/01/09 06:53:03;;;;;;;3.78;1.10;;;;;;;9.87;66.06;99401.63;5090776;28;20048;-60
2023/01/09 06:55:31;;;;;;;6.22;1.75;;;;;;;9.85;65.92;99409.13;5088745;28;20067;-62
2023/01/09 06:57:59;;;;;;;6.75;2.22;;;;;;;9.83;66.06;99413.13;5101787;28;20574;-58
2023/01/09 07:00:28;;;;;;;6.32;1.42;;;;;;;9.81;66.06;99417.94;5094770;28;20040;-60
2023/01/09 07:02:56;;;;;;;6.30;1.67;;;;;;;9.78;66.31;99420.06;5096210;28;20048;-58
2023/01/09 07:05:24;;;;;;;7.35;1.75;;;;;;;9.74;66.55;99416.25;5094730;28;20094;-59
2023/01/09 07:07:52;;;;;;;5.28;1.67;;;;;;;9.75;66.02;99422.44;5098818;28;20059;-60
2023/01/09 07:10:19;;;;;;;7.40;1.95;;;;;;;9.74;66.08;99437.72;5098162;28;20063;-61
2023/01/09 07:12:47;;;;;;;9.10;2.03;;;;;;;9.71;66.34;99434.72;5097285;28;20082;-59
2023/01/09 07:15:15;;;;;;;8.38;1.88;;;;;;;9.70;66.21;99439.28;5094494;28;20129;-59
2023/01/09 07:17:44;;;;;;;9.38;2.40;;;;;;;9.62;66.53;99445.06;5096788;28;20556;-61
2023/01/09 07:20:12;;;;;;;5.45;1.88;;;;;;;9.62;66.38;99434.34;5096488;28;20054;-61
2023/01/09 07:22:41;;;;;;;4.55;1.52;;;;;;;9.62;66.81;99457.69;5087194;28;20056;-59
2023/01/09 07:25:09;;;;;;;4.05;1.52;;;;;;;9.63;67.04;99451.25;5097535;28;20060;-62
2023/01/09 07:27:37;;;;;;;5.35;1.55;;;;;;;9.63;66.82;99456.63;5097338;28;20120;-61
2023/01/09 07:30:06;;;;;;;8.00;1.85;;;;;;;9.65;66.52;99468.72;5097668;28;20108;-59
2023/01/09 07:32:35;;;;;;;6.15;1.70;;;;;;;9.63;66.37;99462.78;5091975;28;20052;-61
2023/01/09 07:35:04;;;;;;;6.28;1.60;;;;;;;9.64;66.69;99460.91;5096045;28;20051;-61
2023/01/09 07:37:33;;;;;;;7.32;1.60;;;;;;;9.69;66.50;99464.47;5095920;28;20090;-60
2023/01/09 07:40:00;;;;;;;5.65;2.05;;;;;;;9.64;66.66;99477.00;5091571;28;20040;-61
2023/01/09 07:42:28;;;;;;;9.70;2.40;;;;;;;9.61;66.62;99470.28;5099668;28;20218;-60
2023/01/09 07:44:56;;;;;;;5.35;1.42;;;;;;;9.61;66.72;99481.00;5088726;28;20069;-56
2023/01/09 07:47:24;;;;;;;7.10;1.67;;;;;;;9.58;66.29;99478.81;5099099;28;20138;-61
2023/01/09 07:49:52;;;;;;;6.45;1.55;;;;;;;9.56;66.26;99472.91;5100843;28;20108;-60
2023/01/09 07:52:21;;;;;;;9.07;1.67;;;;;;;9.61;66.81;99490.94;5093678;28;20044;-58
2023/01/09 07:54:49;;;;;;;3.75;1.65;;;;;;;9.68;66.52;99480.81;5088918;28;20044;-60
2023/01/09 07:57:17;;;;;;;7.45;1.50;;;;;;;9.64;66.28;99493.13;4742745;28;9999870;-59
2023/01/09 07:59:45;;;;;;;5.78;1.17;;;;;;;9.59;66.63;99501.09;5096423;28;20135;-60
2023/01/09 08:02:13;;;;;;;3.28;1.17;;;;;;;9.55;66.60;99490.06;5097065;28;20575;-49
2023/01/09 08:04:41;;;;;;;4.90;1.55;;;;;;;9.54;66.81;99501.84;5096918;28;20605;-60
2023/01/09 08:07:09;;;;;;;6.60;1.77;;;;;;;9.53;66.60;99502.91;5092301;28;20112;-59
2023/01/09 08:09:38;;;;;;;6.57;1.98;;;;;;;9.54;66.97;99499.16;5092175;28;20048;-56
2023/01/09 08:12:06;;;;;;;8.43;1.65;;;;;;;9.53;66.47;99505.56;5095043;28;20477;-60
2023/01/09 08:14:34;;;;;;;5.68;1.63;;;;;;;9.54;66.99;99517.94;5088170;28;20076;-61
2023/01/09 08:17:02;;;;;;;7.22;2.13;;;;;;;9.55;67.15;99514.19;5094116;28;20044;-60
2023/01/09 08:19:30;;;;;;;5.93;2.95;;;;;;;9.53;67.09;99516.31;5094455;28;20044;-61
2023/01/09 08:21:58;;;;;;;4.93;1.77;;;;;;;9.51;66.75;99521.09;5085541;28;20056;-62
2023/01/09 08:24:26;;;;;;;5.57;1.40;;;;;;;9.49;67.01;99531.25;5084702;28;20062;-63
2023/01/09 08:26:55;;;;;;;5.43;1.40;;;;;;;9.49;66.75;99527.78;5105320;28;20055;-63
2023/01/09 08:29:23;;;;;;;5.68;1.30;;;;;;;9.49;67.16;99533.13;5095928;28;20379;-63
2023/01/09 08:31:51;;;;;;;3.85;1.40;;;;;;;9.50;66.88;99540.13;5097350;28;20110;-65
2023/01/09 08:34:19;;;;;;;4.95;1.38;;;;;;;9.47;67.28;99554.84;5091163;28;20108;-60
2023/01/09 08:36:46;;;;;;;3.88;1.20;;;;;;;9.48;67.15;99550.28;5092374;28;20036;-58
2023/01/09 08:39:14;;;;;;;5.30;1.80;;;;;;;9.48;67.03;99555.66;5093890;28;20060;-64
2023/01/09 08:47:16;;;;;;;7.97;2.03;;;;;;;9.49;67.19;99565.31;5089228;28;20575;-65
2023/01/09 08:49:44;;;;;;;6.28;1.42;;;;;;;9.48;66.90;99574.41;5087296;28;20334;-62
2023/01/09 08:52:12;;;;;;;3.60;1.23;;;;;;;9.48;67.18;99579.78;5105637;28;20051;-64
2023/01/09 08:54:40;;;;;;;4.55;1.60;;;;;;;9.49;66.87;99587.59;5093418;28;20047;-59
2023/01/09 08:57:08;;;;;;;6.15;1.60;;;;;;;9.50;67.18;99591.91;5089614;28;20040;-67
2023/01/09 08:59:37;;;;;;;4.45;1.38;;;;;;;9.55;66.77;99597.34;5088941;28;20539;-64
2023/01/09 09:02:05;;;;;;;3.92;1.30;;;;;;;9.64;66.28;99603.09;5109291;28;20142;-64
2023/01/09 09:04:33;;;;;;;4.25;1.15;;;;;;;9.79;65.93;99601.44;5099563;28;20044;-64
2023/01/09 09:07:01;;;;;;;7.53;1.52;;;;;;;9.96;65.59;99606.78;5102802;28;20123;-61
2023/01/09 09:09:29;;;;;;;4.60;1.27;;;;;;;10.11;64.99;99623.06;5093951;28;20414;-61
2023/01/09 09:11:56;;;;;;;4.22;1.17;;;;;;;10.27;64.23;99615.25;5097941;28;20103;-64
2023/01/09 09:17:11;;;;;;;5.80;1.30;;;;;;;10.60;63.22;99628.50;5099956;28;20072;-59
2023/01/09 09:19:41;;;;;;;8.23;1.70;;;;;;;10.77;62.65;99629.22;5091920;28;20270;-64
2023/01/09 09:22:09;;;;;;;5.07;1.30;;;;;;;10.93;62.20;99635.56;5094625;28;20079;-64
2023/01/09 09:24:37;;;;;;;3.95;1.45;;;;;;;11.06;61.91;99643.22;5095343;28;20048;-64
2023/01/09 09:27:05;;;;;;;4.97;1.48;;;;;;;11.16;61.68;99639.03;5110310;28;20067;-58
2023/01/09 09:29:32;;;;;;;5.35;1.30;;;;;;;11.09;61.78;99649.97;5095729;28;20048;-62
2023/01/09 09:32:00;;;;;;;4.45;1.48;;;;;;;10.96;62.01;99655.75;5099806;28;20275;-62
2023/01/09 09:34:29;;;;;;;4.25;1.77;;;;;;;10.75;62.80;99663.59;5101912;28;20047;-62
2023/01/09 09:36:57;;;;;;;4.45;1.23;;;;;;;10.61;63.59;99664.25;5095558;28;20040;-62
2023/01/09 09:39:25;;;;;;;5.25;1.83;;;;;;;10.47;63.92;99673.75;5100120;28;20052;-62
2023/01/09 09:45:26;;;;;;;6.45;1.45;;;;;;;10.21;64.61;99683.38;5096247;28;20415;-62
2023/01/09 09:48:06;;;;;;;3.45;1.50;;;;;;;10.26;64.86;99684.25;5102563;28;20044;-62
2023/01/09 09:50:54;;;;;;;3.97;1.33;;;;;;;10.43;64.29;99698.41;5097837;28;20078;-62
2023/01/09 09:53:29;;;;;;;5.93;1.50;;;;;;;10.62;63.67;99701.59;5100766;28;20202;-63
2023/01/09 09:55:57;;;;;;;5.82;1.77;;;;;;;10.80;63.10;99721.16;5100495;28;20085;-64
2023/01/09 09:58:31;;;;;;;6.97;1.67;;;;;;;10.95;62.38;99724.03;5099541;28;20060;-64
2023/01/09 10:01:01;;;;;;;5.80;1.95;;;;;;;11.09;61.69;99725.25;5100573;28;20090;-62
2023/01/09 10:03:37;;;;;;;4.78;1.15;;;;;;;11.23;61.42;99734.56;5088620;28;20139;-63
2023/01/09 10:06:11;;;;;;;6.65;1.48;;;;;;;11.38;61.34;99739.28;5106367;28;20168;-63
2023/01/09 10:08:46;;;;;;;3.50;1.20;;;;;;;11.44;60.82;99735.56;5097327;28;20059;-63
2023/01/09 10:11:20;;;;;;;5.57;1.33;;;;;;;11.51;60.61;99751.50;5105472;28;20068;-63
2023/01/09 10:14:06;;;;;;;4.82;1.80;;;;;;;11.51;60.43;99736.19;5087823;28;20054;-57
2023/01/09 10:17:07;;;;;;;5.30;2.17;;;;;;;11.61;60.13;99754.31;5097340;28;20044;-63
2023/01/09 10:19:48;;;;;;;5.00;1.33;;;;;;;11.61;60.17;99748.91;5095360;28;20072;-64
2023/01/09 10:22:25;;;;;;;3.33;1.20;;;;;;;11.62;60.30;99759.44;5089926;28;20056;-63
2023/01/09 10:25:04;;;;;;;4.55;1.85;;;;;;;11.52;60.24;99745.06;5092169;28;20843;-62
2023/01/09 10:27:43;;;;;;;10.05;1.80;;;;;;;11.62;60.27;99755.94;5080361;28;20048;-62
2023/01/09 10:30:28;;;;;;;4.90;1.33;;;;;;;11.67;60.41;99764.03;5099861;28;20051;-63
2023/01/09 10:33:06;;;;;;;5.15;1.20;;;;;;;11.68;60.17;99768.34;5097573;28;20044;-63
2023/01/09 10:35:49;;;;;;;6.40;1.65;;;;;;;11.67;60.16;99764.84;5102870;28;20044;-64
2023/01/09 10:38:23;;;;;;;2.42;1.38;;;;;;;11.69;60.30;99775.38;5094305;28;20044;-58
2023/01/09 10:40:56;;;;;;;5.25;1.25;;;;;;;11.70;60.56;99785.06;5095848;28;20044;-64
2023/01/09 10:43:34;;;;;;;6.07;1.45;;;;;;;11.69;60.28;99786.13;5102771;28;20044;-66
2023/01/09 10:46:07;;;;;;;4.20;1.40;;;;;;;11.73;60.40;99787.25;5097602;28;20139;-63
2023/01/09 10:48:38;;;;;;;5.60;1.55;;;;;;;11.71;60.26;99792.06;5101479;28;20055;-65
2023/01/09 10:51:17;;;;;;;5.07;2.60;;;;;;;11.73;60.45;99792.63;5093010;28;20072;-65
2023/01/09 10:53:51;;;;;;;6.43;2.40;;;;;;;11.65;60.58;99796.59;5100861;28;20068;-64
2023/01/09 10:56:23;;;;;;;7.50;1.92;;;;;;;11.52;61.09;99791.63;5095520;28;20046;-58
2023/01/09 10:58:52;;;;;;;4.20;1.75;;;;;;;11.33;61.69;99798.41;5099620;28;20078;-54
2023/01/09 11:01:25;;;;;;;6.35;1.83;;;;;;;11.14;62.48;99810.56;5098285;28;20105;-64
2023/01/09 11:03:53;;;;;;;6.78;1.98;;;;;;;10.97;63.03;99794.50;5094503;28;20059;-64
2023/01/09 11:06:25;;;;;;;4.65;1.73;;;;;;;10.84;63.73;99805.59;5099574;28;20111;-62
2023/01/09 11:08:59;;;;;;;5.55;1.50;;;;;;;10.72;64.05;99805.72;5100774;28;20051;-64
2023/01/09 11:11:34;;;;;;;5.38;1.90;;;;;;;10.63;64.07;99812.59;5094211;28;20048;-63
2023/01/09 11:14:13;;;;;;;6.07;1.70;;;;;;;10.55;64.86;99813.81;5099781;28;20051;-63
2023/01/09 11:16:51;;;;;;;4.03;1.85;;;;;;;10.56;64.95;99823.50;5096638;28;20301;-64
2023/01/09 11:19:20;;;;;;;6.63;2.05;;;;;;;10.48;64.74;99820.41;5096736;28;20060;-64
2023/01/09 11:21:48;;;;;;;4.47;1.60;;;;;;;10.43;65.21;99813.91;5103160;28;20052;-63
2023/01/09 11:24:35;;;;;;;4.88;1.63;;;;;;;10.38;65.15;99826.47;5104566;28;20040;-63
2023/01/09 11:27:24;;;;;;;5.20;1.58;;;;;;;10.34;65.45;99820.78;5101274;28;20100;-63
2023/01/09 11:30:14;;;;;;;5.90;2.17;;;;;;;10.29;65.93;99814.53;5099058;28;20058;-63
2023/01/09 11:32:43;;;;;;;5.00;1.80;;;;;;;10.18;65.82;99810.84;5113681;28;20074;-63
2023/01/09 11:35:19;;;;;;;10.88;2.60;;;;;;;10.38;65.71;99819.25;5100410;28;20048;-63
2023/01/09 11:37:49;;;;;;;6.40;2.05;;;;;;;10.55;64.91;99821.88;5099457;28;20080;-64
2023/01/09 11:40:21;;;;;;;5.60;1.85;;;;;;;10.74;64.30;99830.47;5096383;28;20158;-61
2023/01/09 11:43:04;;;;;;;7.45;2.53;;;;;;;10.87;63.52;99829.31;5103146;28;20046;-63
2023/01/09 11:45:34;;;;;;;5.57;1.40;;;;;;;11.14;63.03;99838.25;5099383;28;20040;-63
2023/01/09 11:48:16;;;;;;;7.85;1.73;;;;;;;11.30;62.56;99840.06;5097807;28;20040;-63
2023/01/09 11:50:55;;;;;;;4.43;2.25;;;;;;;11.50;61.56;99833.28;5103756;28;20131;-61
2023/01/09 11:53:24;;;;;;;4.75;1.30;;;;;;;11.62;61.29;99836.66;5096383;28;20037;-63
2023/01/09 11:55:59;;;;;;;5.80;1.50;;;;;;;11.71;61.05;99844.03;5102728;28;20044;-63
2023/01/09 11:58:33;;;;;;;6.10;2.00;;;;;;;11.72;60.83;99845.66;5107356;28;20052;-63
2023/01/09 12:01:14;;;;;;;4.22;1.65;;;;;;;11.62;61.07;99847.41;5098417;28;20052;-64
2023/01/09 12:04:01;;;;;;;4.43;1.70;;;;;;;11.40;61.61;99842.88;5102319;28;20051;-64
2023/01/09 12:06:36;;;;;;;4.53;1.80;;;;;;;11.21;62.44;99843.44;5099661;28;20044;-65
2023/01/09 12:09:07;;;;;;;4.78;1.65;;;;;;;11.05;62.81;99845.13;5098443;28;20097;-63
2023/01/09 12:11:48;;;;;;;4.63;2.13;;;;;;;10.89;63.30;99848.69;5103560;28;20051;-64